Time;durP1;ratioP1;P1;durP2;ratioP2;P2;SDS_P1;SDS_P2;PMS_P1;PMS_P2;Temp;Humidity;BMP_temperature;BMP_pressure;BME280_temperature;BME280_humidity;BME280_pressure;Samples;Min_cycle;Max_cycle;Signal;HPM_P1;HPM_P2
2023/08/16 00:01:23;;;;;;;8.25;2.17;;;;;;;17.95;100.00;101776.06;5031279;28;20042;-51
2023/08/16 00:03:54;;;;;;;4.70;1.90;;;;;;;17.89;100.00;101770.22;5030565;28;20068;-52
2023/08/16 00:06:24;;;;;;;7.32;2.50;;;;;;;17.95;100.00;101770.75;5032671;28;20056;-64
2023/08/16 00:08:57;;;;;;;5.93;1.83;;;;;;;17.99;100.00;101775.69;5034334;28;20045;-64
2023/08/16 00:11:30;;;;;;;7.03;2.40;;;;;;;17.95;100.00;101771.56;5034434;28;20187;-53
2023/08/16 00:13:58;;;;;;;5.20;2.22;;;;;;;17.88;100.00;101771.19;5034308;28;20141;-51
2023/08/16 00:16:26;;;;;;;6.57;2.08;;;;;;;17.84;100.00;101767.09;5034354;28;20045;-54
2023/08/16 00:18:55;;;;;;;4.95;1.98;;;;;;;17.81;100.00;101771.84;5033795;28;20132;-52
2023/08/16 00:21:24;;;;;;;7.40;2.42;;;;;;;17.79;100.00;101766.63;5033840;28;20052;-51
2023/08/16 00:23:52;;;;;;;2.92;1.80;;;;;;;17.79;100.00;101779.09;5033403;28;20077;-51
2023/08/16 00:26:20;;;;;;;6.85;2.00;;;;;;;17.81;100.00;101779.81;5033866;28;20049;-50
2023/08/16 00:28:50;;;;;;;4.72;1.95;;;;;;;17.72;100.00;101782.25;5034087;28;20548;-48
2023/08/16 00:31:19;;;;;;;6.25;2.00;;;;;;;17.74;100.00;101782.97;5034061;28;20048;-51
2023/08/16 00:33:48;;;;;;;6.38;1.92;;;;;;;17.72;100.00;101776.94;5034047;28;20432;-51
2023/08/16 00:36:16;;;;;;;6.88;1.90;;;;;;;17.72;100.00;101787.59;5033871;28;20092;-51
2023/08/16 00:38:44;;;;;;;6.60;2.10;;;;;;;17.68;100.00;101777.28;5033852;28;20033;-52
2023/08/16 00:41:13;;;;;;;3.35;1.67;;;;;;;17.75;100.00;101791.78;5033854;28;20056;-51
2023/08/16 00:43:41;;;;;;;5.45;1.70;;;;;;;17.69;100.00;101792.28;5033858;28;20413;-50
2023/08/16 00:46:12;;;;;;;4.30;1.83;;;;;;;17.66;100.00;101795.22;5033284;28;20055;-51
2023/08/16 00:48:43;;;;;;;5.75;1.92;;;;;;;17.65;100.00;101791.69;5033268;28;20049;-52
2023/08/16 00:51:12;;;;;;;3.97;1.88;;;;;;;17.71;100.00;101796.53;5032279;28;20053;-53
2023/08/16 00:53:42;;;;;;;3.17;1.58;;;;;;;17.67;100.00;101804.84;5033707;28;20053;-53
2023/08/16 00:56:10;;;;;;;5.60;1.70;;;;;;;17.69;100.00;101798.44;5032159;28;20128;-51
2023/08/16 00:58:38;;;;;;;6.25;2.03;;;;;;;17.65;100.00;101802.31;5029821;28;20072;-52
2023/08/16 01:01:07;;;;;;;5.20;2.03;;;;;;;17.63;100.00;101798.97;5033232;28;20100;-51
2023/08/16 01:03:37;;;;;;;5.60;1.83;;;;;;;17.65;100.00;101799.66;5033365;28;20438;-52
2023/08/16 01:06:05;;;;;;;6.00;1.90;;;;;;;17.62;100.00;101799.91;5033663;28;20473;-49
2023/08/16 01:08:34;;;;;;;3.63;1.63;;;;;;;17.61;100.00;101800.88;5033390;28;20049;-64
2023/08/16 01:11:08;;;;;;;4.50;1.85;;;;;;;17.62;100.00;101804.41;5033596;28;20083;-64
2023/08/16 01:13:47;;;;;;;5.28;2.28;;;;;;;17.52;100.00;101806.94;5033325;28;20078;-64
2023/08/16 01:16:16;;;;;;;8.05;2.20;;;;;;;17.49;100.00;101804.53;5033361;28;20128;-64
2023/08/16 01:18:46;;;;;;;4.03;2.00;;;;;;;17.51;100.00;101800.78;5033151;28;20123;-64
2023/08/16 01:21:16;;;;;;;4.70;2.05;;;;;;;17.51;100.00;101805.25;5032904;28;20045;-64
2023/08/16 01:23:53;;;;;;;7.40;2.22;;;;;;;17.52;100.00;101807.78;5028427;28;20528;-64
2023/08/16 01:26:29;;;;;;;7.10;2.80;;;;;;;17.51;100.00;101805.25;5029160;28;20073;-64
2023/08/16 01:28:59;;;;;;;8.02;2.90;;;;;;;17.54;100.00;101805.00;5031568;28;20512;-64
2023/08/16 01:31:27;;;;;;;6.40;2.50;;;;;;;17.53;100.00;101808.63;5029712;28;20057;-64
2023/08/16 01:33:59;;;;;;;5.22;2.40;;;;;;;17.45;100.00;101814.56;5028907;28;20051;-53
2023/08/16 01:36:28;;;;;;;6.97;2.85;;;;;;;17.52;100.00;101815.78;5029488;28;20057;-51
2023/08/16 01:38:56;;;;;;;5.63;2.47;;;;;;;17.46;100.00;101816.25;5032076;28;20041;-51
2023/08/16 01:41:30;;;;;;;5.63;2.53;;;;;;;17.43;100.00;101828.94;5031343;28;20045;-64
2023/08/16 01:43:59;;;;;;;7.00;2.80;;;;;;;17.39;100.00;101838.97;5031270;28;20072;-64
2023/08/16 01:46:29;;;;;;;9.10;3.00;;;;;;;17.39;100.00;101828.34;5029198;28;20111;-52
2023/08/16 01:48:59;;;;;;;6.78;2.72;;;;;;;17.34;100.00;101834.03;5031469;28;20132;-51
2023/08/16 01:51:27;;;;;;;8.82;2.97;;;;;;;17.31;100.00;101830.75;5032419;28;20460;-53
2023/08/16 01:53:56;;;;;;;6.88;2.90;;;;;;;17.33;100.00;101834.13;5032322;28;20461;-53
2023/08/16 01:56:24;;;;;;;6.63;2.70;;;;;;;17.35;100.00;101826.88;5032215;28;20058;-51
2023/08/16 01:58:53;;;;;;;7.53;2.60;;;;;;;17.37;100.00;101835.59;5031784;28;20100;-52
2023/08/16 02:01:22;;;;;;;8.85;3.17;;;;;;;17.31;100.00;101830.75;5032318;28;20049;-52
2023/08/16 02:03:50;;;;;;;7.07;3.00;;;;;;;17.35;100.00;101832.19;5031950;28;20042;-52
2023/08/16 02:06:18;;;;;;;9.77;2.83;;;;;;;17.34;100.00;101826.06;5032368;28;20042;-53
2023/08/16 02:08:46;;;;;;;7.63;2.85;;;;;;;17.38;100.00;101826.63;5030927;28;20045;-53
2023/08/16 02:11:14;;;;;;;9.23;2.95;;;;;;;17.30;100.00;101823.72;5030997;28;20493;-51
2023/08/16 02:13:42;;;;;;;6.07;2.75;;;;;;;17.23;100.00;101826.03;5032166;28;20056;-52
2023/08/16 02:16:12;;;;;;;9.80;2.90;;;;;;;17.19;100.00;101822.78;5032127;28;20111;-51
2023/08/16 02:18:41;;;;;;;7.28;2.85;;;;;;;17.22;100.00;101822.53;5032117;28;20151;-52
2023/08/16 02:21:09;;;;;;;7.15;3.25;;;;;;;17.10;100.00;101817.31;5032367;28;20045;-64
2023/08/16 02:23:37;;;;;;;5.35;2.67;;;;;;;17.05;100.00;101815.03;5031961;28;20045;-50
2023/08/16 02:26:06;;;;;;;9.48;2.80;;;;;;;17.10;100.00;101814.66;5031499;28;20053;-52
2023/08/16 02:28:34;;;;;;;7.22;2.50;;;;;;;17.10;100.00;101822.63;5031642;28;20049;-64
2023/08/16 02:31:05;;;;;;;7.70;2.88;;;;;;;17.02;100.00;101818.75;5029041;28;20050;-64
2023/08/16 02:33:35;;;;;;;7.18;2.78;;;;;;;17.02;100.00;101820.56;5028203;28;20041;-64
2023/08/16 02:36:04;;;;;;;5.50;2.65;;;;;;;17.05;100.00;101818.50;5028916;28;20576;-52
2023/08/16 02:38:32;;;;;;;6.53;2.95;;;;;;;17.01;100.00;101822.38;5030318;28;20374;-53
2023/08/16 02:41:01;;;;;;;5.20;2.60;;;;;;;17.06;100.00;101819.38;5030473;28;20108;-52
2023/08/16 02:43:29;;;;;;;5.63;2.88;;;;;;;16.98;100.00;101824.44;5031620;28;20662;-50
2023/08/16 02:45:58;;;;;;;6.80;3.30;;;;;;;16.87;100.00;101833.19;5030284;28;20053;-53
2023/08/16 02:48:26;;;;;;;9.48;2.92;;;;;;;16.90;100.00;101828.50;5031767;28;20069;-52
2023/08/16 02:50:56;;;;;;;8.65;3.05;;;;;;;16.92;100.00;101824.91;5031565;28;20050;-52
2023/08/16 02:53:27;;;;;;;7.03;2.80;;;;;;;16.86;100.00;101829.69;5031666;28;20045;-52
2023/08/16 02:55:55;;;;;;;9.15;3.78;;;;;;;16.82;100.00;101825.56;5031429;28;20060;-53
2023/08/16 02:58:23;;;;;;;6.95;2.90;;;;;;;16.86;100.00;101836.81;5030647;28;20053;-64
2023/08/16 03:00:52;;;;;;;8.55;3.30;;;;;;;16.84;100.00;101833.44;5027933;28;20045;-65
2023/08/16 03:03:20;;;;;;;9.32;3.47;;;;;;;16.86;100.00;101831.50;5027648;28;20120;-65
2023/08/16 03:05:49;;;;;;;7.55;3.03;;;;;;;16.89;100.00;101837.47;5027851;28;20049;-51
2023/08/16 03:08:18;;;;;;;6.18;2.95;;;;;;;16.93;100.00;101838.06;5030644;28;20041;-52
2023/08/16 03:10:46;;;;;;;7.38;3.30;;;;;;;16.98;100.00;101835.06;5031285;28;20057;-52
2023/08/16 03:13:15;;;;;;;9.98;3.30;;;;;;;16.93;100.00;101831.91;5031306;28;20045;-53
2023/08/16 03:15:43;;;;;;;6.43;3.10;;;;;;;16.90;100.00;101828.50;5034374;28;20409;-50
2023/08/16 03:18:11;;;;;;;8.68;3.10;;;;;;;16.92;100.00;101831.06;5035571;28;20045;-50
2023/08/16 03:20:39;;;;;;;7.63;3.28;;;;;;;16.86;100.00;101832.34;5035234;28;20049;-54
2023/08/16 03:23:07;;;;;;;10.57;3.67;;;;;;;16.90;100.00;101835.66;5035483;28;20099;-52
2023/08/16 03:25:37;;;;;;;8.45;3.45;;;;;;;16.92;100.00;101827.56;5035320;28;20378;-52
2023/08/16 03:28:06;;;;;;;9.35;3.30;;;;;;;16.89;100.00;101832.16;5034742;28;20054;-53
2023/08/16 03:30:34;;;;;;;7.57;3.60;;;;;;;16.81;100.00;101834.50;5034844;28;20120;-54
2023/08/16 03:33:03;;;;;;;9.55;3.53;;;;;;;16.79;100.00;101835.59;5034843;28;20041;-52
2023/08/16 03:35:31;;;;;;;8.18;3.30;;;;;;;16.76;100.00;101834.00;5034169;28;20538;-52
2023/08/16 03:37:59;;;;;;;9.23;3.50;;;;;;;16.81;100.00;101844.28;5035071;28;20045;-53
2023/08/16 03:40:27;;;;;;;7.32;3.33;;;;;;;16.78;100.00;101840.03;5035161;28;20045;-53
2023/08/16 03:42:57;;;;;;;8.20;3.28;;;;;;;16.82;100.00;101841.50;5034692;28;20049;-54
2023/08/16 03:45:26;;;;;;;11.15;3.42;;;;;;;16.84;100.00;101841.41;5034763;28;20168;-53
2023/08/16 03:47:54;;;;;;;7.47;3.10;;;;;;;16.85;100.00;101841.28;5034916;28;20393;-52
2023/08/16 03:50:22;;;;;;;6.10;3.40;;;;;;;16.80;100.00;101842.59;5034971;28;20045;-51
2023/08/16 03:52:51;;;;;;;8.15;3.13;;;;;;;16.76;100.00;101846.47;5034931;28;20100;-51
2023/08/16 03:55:19;;;;;;;9.90;3.47;;;;;;;16.73;100.00;101852.84;5034782;28;20469;-53
2023/08/16 03:57:48;;;;;;;9.15;3.60;;;;;;;16.70;100.00;101845.09;5034384;28;20069;-52
2023/08/16 04:00:17;;;;;;;12.05;4.07;;;;;;;16.64;100.00;101851.72;5034869;28;20045;-53
2023/08/16 04:02:45;;;;;;;7.10;3.55;;;;;;;16.64;100.00;101856.19;5034899;28;20488;-53
2023/08/16 04:05:14;;;;;;;9.70;4.15;;;;;;;16.60;100.00;101862.69;5034776;28;20511;-52
2023/08/16 04:07:43;;;;;;;8.48;4.05;;;;;;;16.57;100.00;101858.44;5034685;28;20053;-53
2023/08/16 04:10:11;;;;;;;9.18;4.30;;;;;;;16.58;100.00;101857.50;5034322;28;20049;-51
2023/08/16 04:12:39;;;;;;;10.73;4.72;;;;;;;16.53;100.00;101862.28;5032844;28;20111;-52
2023/08/16 04:15:09;;;;;;;10.15;4.53;;;;;;;16.56;100.00;101867.38;5034505;28;20042;-50
2023/08/16 04:17:39;;;;;;;9.95;4.78;;;;;;;16.56;100.00;101870.88;5034323;28;20095;-51
2023/08/16 04:20:10;;;;;;;10.70;4.68;;;;;;;16.57;100.00;101871.72;5034143;28;20053;-53
2023/08/16 04:22:38;;;;;;;9.85;4.80;;;;;;;16.62;100.00;101869.59;5034371;28;20498;-53
2023/08/16 04:25:08;;;;;;;7.80;4.32;;;;;;;16.63;100.00;101870.41;5034090;28;20099;-50
2023/08/16 04:27:36;;;;;;;11.00;4.47;;;;;;;16.62;100.00;101866.94;5034227;28;20103;-51
2023/08/16 04:30:06;;;;;;;11.77;4.60;;;;;;;16.62;100.00;101864.28;5034146;28;20069;-53
2023/08/16 04:32:34;;;;;;;11.05;5.22;;;;;;;16.47;100.00;101850.34;5033992;28;20397;-53
2023/08/16 04:35:07;;;;;;;11.60;5.53;;;;;;;16.47;100.00;101841.50;5033814;28;20045;-52
2023/08/16 04:37:35;;;;;;;10.77;5.47;;;;;;;16.43;100.00;101848.88;5034062;28;20392;-50
2023/08/16 04:40:03;;;;;;;10.23;5.30;;;;;;;16.49;100.00;101860.84;5033937;28;20383;-53
2023/08/16 04:42:34;;;;;;;12.48;5.25;;;;;;;16.53;100.00;101868.44;5033933;28;20049;-52
2023/08/16 04:45:03;;;;;;;11.82;5.00;;;;;;;16.46;100.00;101869.03;5034255;28;20109;-53
2023/08/16 04:47:32;;;;;;;11.27;4.53;;;;;;;16.50;100.00;101874.00;5034071;28;20049;-53
2023/08/16 04:50:03;;;;;;;9.70;4.93;;;;;;;16.49;100.00;101869.63;5033731;28;20053;-53
2023/08/16 04:52:32;;;;;;;15.65;4.55;;;;;;;16.51;100.00;101867.72;5033718;28;20053;-51
2023/08/16 04:55:01;;;;;;;10.18;4.75;;;;;;;16.52;100.00;101872.09;5033202;28;20081;-52
2023/08/16 04:57:33;;;;;;;10.32;4.15;;;;;;;16.49;100.00;101876.75;5033685;28;20500;-53
2023/08/16 05:00:06;;;;;;;10.77;4.72;;;;;;;16.38;100.00;101867.78;5033502;28;20134;-63
2023/08/16 05:02:35;;;;;;;10.80;4.40;;;;;;;16.44;100.00;101873.59;5033434;28;20128;-64
2023/08/16 05:05:04;;;;;;;10.52;4.53;;;;;;;16.34;100.00;101879.56;5030454;28;20149;-65
2023/08/16 05:07:34;;;;;;;9.93;4.72;;;;;;;16.31;100.00;101877.16;5029841;28;20053;-65
2023/08/16 05:10:02;;;;;;;9.73;4.50;;;;;;;16.33;100.00;101877.91;5028753;28;20054;-64
2023/08/16 05:12:32;;;;;;;15.15;4.53;;;;;;;16.37;100.00;101879.38;5031256;28;20099;-64
2023/08/16 05:15:00;;;;;;;10.70;4.55;;;;;;;16.43;100.00;101880.72;5033323;28;20111;-64
2023/08/16 05:17:28;;;;;;;10.45;5.00;;;;;;;16.50;100.00;101897.03;5030289;28;20049;-64
2023/08/16 05:19:57;;;;;;;12.45;5.50;;;;;;;16.41;100.00;101901.22;5029780;28;20420;-53
2023/08/16 05:22:25;;;;;;;8.90;5.32;;;;;;;16.33;100.00;101908.88;5030725;28;20045;-52
2023/08/16 05:24:54;;;;;;;10.77;5.78;;;;;;;16.29;100.00;101910.94;5033075;28;20497;-52
2023/08/16 05:27:22;;;;;;;11.68;6.00;;;;;;;16.35;100.00;101909.63;5033266;28;20049;-51
2023/08/16 05:29:51;;;;;;;10.23;5.30;;;;;;;16.38;100.00;101912.91;5031900;28;20046;-52
2023/08/16 05:32:19;;;;;;;11.00;5.78;;;;;;;16.36;100.00;101921.94;5033044;28;20411;-53
2023/08/16 05:34:47;;;;;;;11.43;6.25;;;;;;;16.42;100.00;101933.94;5032763;28;20499;-52
2023/08/16 05:37:15;;;;;;;14.30;6.20;;;;;;;16.39;100.00;101921.72;5032031;28;20125;-51
2023/08/16 05:39:44;;;;;;;13.05;6.18;;;;;;;16.42;100.00;101920.66;5032867;28;20064;-64
2023/08/16 05:42:13;;;;;;;10.10;5.90;;;;;;;16.49;100.00;101920.06;5033151;28;20092;-64
2023/08/16 05:44:41;;;;;;;12.05;5.93;;;;;;;16.58;100.00;101917.72;5032869;28;20095;-52
2023/08/16 05:47:10;;;;;;;9.82;5.53;;;;;;;16.62;100.00;101912.06;5032171;28;20099;-53
2023/08/16 05:49:38;;;;;;;9.93;6.18;;;;;;;16.64;100.00;101917.25;5031358;28;20049;-54
2023/08/16 05:52:06;;;;;;;9.02;6.20;;;;;;;16.63;100.00;101919.06;5032672;28;20095;-52
2023/08/16 05:54:34;;;;;;;13.57;6.13;;;;;;;16.62;100.00;101911.22;5032354;28;20247;-52
2023/08/16 05:57:03;;;;;;;11.98;5.60;;;;;;;16.73;100.00;101914.78;5031136;28;20057;-53
2023/08/16 05:59:32;;;;;;;10.98;5.60;;;;;;;16.73;100.00;101901.50;5032215;28;20064;-64
2023/08/16 06:02:00;;;;;;;10.77;5.47;;;;;;;16.81;100.00;101908.03;5032913;28;20057;-64
2023/08/16 06:04:31;;;;;;;9.30;4.65;;;;;;;16.94;100.00;101911.50;5032412;28;20045;-53
2023/08/16 06:07:00;;;;;;;11.80;5.10;;;;;;;17.05;100.00;101908.84;5032252;28;20080;-64
2023/08/16 06:09:28;;;;;;;10.77;4.90;;;;;;;17.10;100.00;101908.53;5031028;28;20049;-52
2023/08/16 06:11:56;;;;;;;9.85;4.38;;;;;;;17.18;100.00;101913.28;5032144;28;20056;-64
2023/08/16 06:14:24;;;;;;;9.52;4.35;;;;;;;17.24;100.00;101918.09;5028675;28;20049;-64
2023/08/16 06:16:54;;;;;;;12.40;4.88;;;;;;;17.29;100.00;101923.91;5029788;28;20045;-52
2023/08/16 06:19:22;;;;;;;12.90;4.30;;;;;;;17.42;100.00;101928.28;5032307;28;20543;-53
2023/08/16 06:21:50;;;;;;;11.15;4.80;;;;;;;17.53;100.00;101931.81;5032484;28;20107;-64
2023/08/16 06:24:18;;;;;;;13.07;4.15;;;;;;;17.55;100.00;101924.56;5027665;28;20060;-64
2023/08/16 06:26:46;;;;;;;14.23;4.63;;;;;;;17.55;100.00;101923.72;5029076;28;20136;-64
2023/08/16 06:29:14;;;;;;;8.70;4.40;;;;;;;17.56;100.00;101925.38;5030702;28;20053;-65
2023/08/16 06:31:43;;;;;;;8.90;3.88;;;;;;;17.70;100.00;101935.81;5031966;28;20498;-65
2023/08/16 06:34:12;;;;;;;12.57;4.13;;;;;;;17.79;100.00;101936.06;5029437;28;20809;-65
2023/08/16 06:36:40;;;;;;;11.38;4.82;;;;;;;17.76;100.00;101930.97;5028289;28;20519;-50
2023/08/16 06:39:08;;;;;;;10.32;4.28;;;;;;;17.76;100.00;101936.31;5027314;28;20050;-51
2023/08/16 06:41:36;;;;;;;8.70;3.63;;;;;;;17.86;100.00;101940.78;5030827;28;20129;-65
2023/08/16 06:44:07;;;;;;;7.60;3.28;;;;;;;17.92;100.00;101944.78;5028552;28;20042;-64
2023/08/16 06:46:35;;;;;;;9.93;3.60;;;;;;;18.00;100.00;101945.03;5030221;28;20037;-62
2023/08/16 06:49:03;;;;;;;9.73;3.50;;;;;;;18.17;100.00;101949.00;5028752;28;20045;-62
2023/08/16 06:51:33;;;;;;;10.15;4.25;;;;;;;18.10;100.00;101949.63;5028673;28;20057;-63
2023/08/16 06:54:01;;;;;;;10.23;3.78;;;;;;;18.18;100.00;101942.72;5027299;28;20053;-53
2023/08/16 06:56:29;;;;;;;13.02;3.90;;;;;;;18.30;100.00;101942.72;5028735;28;20137;-63
2023/08/16 06:59:00;;;;;;;8.57;4.25;;;;;;;18.26;100.00;101944.75;5031449;28;20053;-63
2023/08/16 07:01:28;;;;;;;10.55;4.00;;;;;;;18.38;100.00;101956.25;5031629;28;20053;-62
2023/08/16 07:03:59;;;;;;;7.50;3.80;;;;;;;18.39;100.00;101960.59;5031266;28;20358;-63
2023/08/16 07:06:31;;;;;;;11.13;4.53;;;;;;;18.59;100.00;101956.31;5028342;28;20192;-63
2023/08/16 07:09:00;;;;;;;8.52;4.18;;;;;;;18.57;100.00;101958.25;5029166;28;20528;-51
2023/08/16 07:11:29;;;;;;;8.07;3.72;;;;;;;18.63;100.00;101957.75;5031452;28;20049;-53
2023/08/16 07:14:00;;;;;;;12.30;3.97;;;;;;;18.69;100.00;101959.91;5031431;28;20063;-53
2023/08/16 07:16:28;;;;;;;8.38;4.07;;;;;;;18.77;100.00;101969.94;5031475;28;20433;-53
2023/08/16 07:18:57;;;;;;;7.38;3.80;;;;;;;18.88;100.00;101958.41;5031746;28;20103;-54
2023/08/16 07:21:27;;;;;;;11.23;3.85;;;;;;;18.96;100.00;101960.44;5031633;28;20748;-51
2023/08/16 07:23:55;;;;;;;10.15;3.92;;;;;;;19.20;100.00;101969.06;5031564;28;20042;-53
2023/08/16 07:26:25;;;;;;;9.38;3.55;;;;;;;19.19;100.00;101971.84;5031414;28;20049;-53
2023/08/16 07:28:53;;;;;;;7.53;3.45;;;;;;;19.30;100.00;101966.44;5030396;28;20056;-53
2023/08/16 07:31:22;;;;;;;9.80;3.85;;;;;;;19.32;100.00;101964.50;5028392;28;20531;-53
2023/08/16 07:33:50;;;;;;;8.05;3.80;;;;;;;19.35;100.00;101964.25;5027502;28;20060;-53
2023/08/16 07:36:18;;;;;;;7.43;3.60;;;;;;;19.38;100.00;101974.66;5028289;28;20103;-52
2023/08/16 07:38:47;;;;;;;7.65;3.15;;;;;;;19.47;100.00;101967.69;5026711;28;20389;-55
2023/08/16 07:41:16;;;;;;;8.32;3.47;;;;;;;19.56;100.00;101966.88;5030299;28;20554;-54
2023/08/16 07:43:45;;;;;;;10.70;3.63;;;;;;;19.58;100.00;101964.94;5026712;28;20059;-54
2023/08/16 07:46:13;;;;;;;6.80;3.33;;;;;;;19.76;100.00;101962.50;5028392;28;20069;-54
2023/08/16 07:48:41;;;;;;;10.68;3.47;;;;;;;19.80;100.00;101954.25;5025866;28;20412;-54
2023/08/16 07:51:11;;;;;;;8.60;3.13;;;;;;;19.92;100.00;101956.72;5028410;28;20069;-53
2023/08/16 07:53:39;;;;;;;11.90;3.35;;;;;;;19.90;100.00;101953.31;5026492;28;20583;-54
2023/08/16 07:56:08;;;;;;;7.00;2.85;;;;;;;20.17;100.00;101957.22;5027480;28;20049;-54
2023/08/16 07:58:36;;;;;;;9.98;3.30;;;;;;;20.18;100.00;101960.72;5026964;28;20054;-50
2023/08/16 08:01:06;;;;;;;8.85;2.95;;;;;;;20.15;100.00;101961.84;5032537;28;20049;-54
2023/08/16 08:03:34;;;;;;;8.43;2.58;;;;;;;20.17;100.00;101964.38;5032858;28;20544;-54
2023/08/16 08:06:03;;;;;;;9.13;2.47;;;;;;;20.21;100.00;101963.13;5031914;28;20038;-55
2023/08/16 08:08:31;;;;;;;6.68;2.80;;;;;;;20.31;100.00;101969.31;5034166;28;20508;-66
2023/08/16 08:11:02;;;;;;;9.30;3.20;;;;;;;20.34;100.00;101977.09;5034162;28;20578;-67
2023/08/16 08:13:30;;;;;;;6.72;3.08;;;;;;;20.28;100.00;101985.63;5031657;28;20408;-66
2023/08/16 08:16:01;;;;;;;12.50;3.33;;;;;;;20.31;100.00;101977.34;5031785;28;20072;-66
2023/08/16 08:18:30;;;;;;;9.18;3.20;;;;;;;20.37;100.00;101981.28;5031378;28;20145;-67
2023/08/16 08:20:59;;;;;;;7.32;3.08;;;;;;;20.43;100.00;101978.91;5034097;28;20053;-65
2023/08/16 08:23:27;;;;;;;9.98;3.20;;;;;;;20.47;100.00;101989.34;5034588;28;20136;-67
2023/08/16 08:25:55;;;;;;;6.32;2.63;;;;;;;20.68;100.00;101979.44;5034631;28;20458;-67
2023/08/16 08:28:24;;;;;;;9.65;3.30;;;;;;;20.97;100.00;101983.09;5034328;28;20052;-67
2023/08/16 08:30:52;;;;;;;10.13;3.42;;;;;;;21.04;100.00;101992.25;5032394;28;20045;-66
2023/08/16 08:33:22;;;;;;;9.65;3.65;;;;;;;21.36;100.00;101993.75;5030946;28;20124;-67
2023/08/16 08:35:51;;;;;;;9.20;3.60;;;;;;;21.49;100.00;101998.78;5030765;28;20132;-67
2023/08/16 08:38:19;;;;;;;7.95;3.15;;;;;;;21.68;100.00;102006.84;5031507;28;20072;-63
2023/08/16 08:40:47;;;;;;;9.45;4.40;;;;;;;21.68;100.00;102008.63;5033414;28;20500;-62
2023/08/16 08:43:19;;;;;;;10.57;3.83;;;;;;;21.87;100.00;102002.38;5033808;28;20124;-65
2023/08/16 08:45:49;;;;;;;8.27;3.67;;;;;;;22.16;100.00;101996.91;5030345;28;20127;-65
2023/08/16 08:48:18;;;;;;;8.80;3.90;;;;;;;22.15;100.00;102002.44;5030850;28;20056;-66
2023/08/16 08:50:47;;;;;;;8.65;3.47;;;;;;;22.10;100.00;101998.34;5030595;28;20045;-63
2023/08/16 08:53:17;;;;;;;8.82;3.78;;;;;;;22.27;100.00;102003.91;5029929;28;20092;-64
2023/08/16 08:55:47;;;;;;;11.07;3.85;;;;;;;22.45;100.00;102015.56;5030652;28;20133;-65
2023/08/16 08:58:17;;;;;;;8.98;4.05;;;;;;;22.55;100.00;102023.53;5033509;28;20521;-66
2023/08/16 09:00:46;;;;;;;9.85;3.72;;;;;;;22.81;100.00;102012.09;5030792;28;20083;-65
2023/08/16 09:03:19;;;;;;;8.30;3.70;;;;;;;22.90;100.00;102023.72;5030957;28;20069;-65
2023/08/16 09:05:51;;;;;;;9.38;3.88;;;;;;;22.77;100.00;102026.78;5031336;28;20455;-63
2023/08/16 09:08:21;;;;;;;10.63;3.88;;;;;;;23.00;100.00;102018.28;5033698;28;20045;-64
2023/08/16 09:10:50;;;;;;;8.27;3.40;;;;;;;23.28;100.00;102016.38;5033451;28;20045;-63
2023/08/16 09:13:19;;;;;;;8.27;3.15;;;;;;;23.39;100.00;102016.09;5029267;28;20053;-64
2023/08/16 09:15:48;;;;;;;9.70;3.50;;;;;;;23.51;100.00;102015.88;5030644;28;20099;-64
2023/08/16 09:18:19;;;;;;;7.82;3.55;;;;;;;23.79;100.00;102006.66;5033178;28;20500;-64
2023/08/16 09:20:52;;;;;;;7.05;2.88;;;;;;;24.06;100.00;102014.69;5033079;28;20061;-64
2023/08/16 09:23:22;;;;;;;7.78;3.33;;;;;;;23.97;100.00;102013.84;5033268;28;20049;-63
2023/08/16 09:25:53;;;;;;;8.50;3.35;;;;;;;23.98;100.00;102011.97;5029293;28;20041;-63
2023/08/16 09:28:21;;;;;;;7.63;3.13;;;;;;;24.03;100.00;102005.13;5030126;28;20038;-65
2023/08/16 09:30:52;;;;;;;10.77;3.05;;;;;;;24.25;100.00;102006.38;5029688;28;20041;-60
2023/08/16 09:33:24;;;;;;;11.23;3.50;;;;;;;24.18;100.00;102010.72;5029980;28;20049;-62
2023/08/16 09:35:52;;;;;;;8.77;3.10;;;;;;;24.29;100.00;102006.91;5032150;28;20068;-62
2023/08/16 09:38:23;;;;;;;10.27;3.47;;;;;;;24.29;100.00;102001.53;5029882;28;20049;-61
2023/08/16 09:40:54;;;;;;;8.15;3.03;;;;;;;24.24;100.00;101999.34;5028873;28;20144;-62
2023/08/16 09:43:22;;;;;;;7.38;2.47;;;;;;;24.57;100.00;102002.13;5031046;28;20107;-62
2023/08/16 09:45:53;;;;;;;6.85;2.60;;;;;;;24.66;100.00;102002.16;5032790;28;20067;-61
2023/08/16 09:48:22;;;;;;;9.27;3.10;;;;;;;24.73;100.00;101997.78;5032398;28;20132;-62
2023/08/16 09:50:50;;;;;;;9.40;2.80;;;;;;;24.97;100.00;101992.44;5032141;28;20053;-61
2023/08/16 09:53:46;;;;;;;8.10;3.03;;;;;;;24.87;100.00;101993.59;5032491;28;20053;-61
2023/08/16 09:56:18;;;;;;;7.90;2.65;;;;;;;25.29;100.00;101988.06;5030615;28;20504;-61
2023/08/16 09:58:50;;;;;;;7.65;2.80;;;;;;;25.25;100.00;101986.72;5028556;28;20140;-61
2023/08/16 10:01:18;;;;;;;7.25;2.90;;;;;;;25.66;100.00;101985.84;5030027;28;20053;-60
2023/08/16 10:03:53;;;;;;;7.03;3.20;;;;;;;25.41;100.00;101976.97;5032516;28;20496;-61
2023/08/16 10:06:25;;;;;;;8.18;2.90;;;;;;;25.49;100.00;101976.94;5032272;28;20067;-61
2023/08/16 10:08:58;;;;;;;5.93;2.95;;;;;;;25.55;100.00;101980.81;5032263;28;20080;-61
2023/08/16 10:11:27;;;;;;;6.95;2.35;;;;;;;25.51;100.00;101972.25;5031000;28;20053;-61
2023/08/16 10:13:59;;;;;;;8.02;2.30;;;;;;;25.85;100.00;101981.91;5032544;28;20404;-60
2023/08/16 10:16:30;;;;;;;8.75;2.40;;;;;;;26.09;100.00;101980.97;5031644;28;20136;-61
2023/08/16 10:19:02;;;;;;;7.97;2.70;;;;;;;26.03;100.00;101980.84;5029350;28;20057;-55
2023/08/16 10:21:34;;;;;;;9.13;2.70;;;;;;;25.89;100.00;101971.59;5031747;28;20111;-52
2023/08/16 10:24:06;;;;;;;9.32;2.45;;;;;;;26.36;100.00;101981.53;5031792;28;20500;-61
2023/08/16 10:26:38;;;;;;;8.00;2.55;;;;;;;26.53;100.00;101978.72;5032140;28;20052;-60
2023/08/16 10:29:12;;;;;;;8.90;2.45;;;;;;;26.65;100.00;101975.44;5030716;28;20073;-59
2023/08/16 10:31:47;;;;;;;6.75;2.10;;;;;;;26.62;100.00;101974.97;5030683;28;20428;-53
2023/08/16 10:34:17;;;;;;;4.82;2.03;;;;;;;26.81;100.00;101977.19;5032121;28;20053;-54
2023/08/16 10:36:47;;;;;;;6.20;2.40;;;;;;;27.25;100.00;101972.94;5031769;28;20445;-53
2023/08/16 10:39:22;;;;;;;6.47;2.40;;;;;;;26.98;100.00;101961.72;5031984;28;20050;-52
2023/08/16 10:41:51;;;;;;;6.68;2.20;;;;;;;26.87;100.00;101962.13;5030344;28;20052;-53
2023/08/16 10:44:23;;;;;;;6.15;2.40;;;;;;;26.93;100.00;101972.22;5029478;28;20071;-54
2023/08/16 10:46:51;;;;;;;6.07;2.22;;;;;;;26.88;100.00;101973.78;5031171;28;20076;-55
2023/08/16 10:49:20;;;;;;;4.32;2.00;;;;;;;27.30;100.00;101975.09;5031851;28;20524;-54
2023/08/16 10:51:50;;;;;;;5.07;1.70;;;;;;;27.79;100.00;101980.00;5031674;28;20041;-54
2023/08/16 10:54:20;;;;;;;5.25;2.10;;;;;;;27.52;99.95;101983.34;5028483;28;20045;-60
2023/08/16 10:56:49;;;;;;;5.93;1.90;;;;;;;27.35;94.38;101988.91;5028344;28;20042;-60
2023/08/16 10:59:17;;;;;;;5.15;1.83;;;;;;;27.75;91.94;101978.69;5031116;28;20517;-60
2023/08/16 11:01:50;;;;;;;6.72;1.88;;;;;;;28.03;89.00;101978.03;5027833;28;20053;-60
2023/08/16 11:04:19;;;;;;;6.80;2.20;;;;;;;28.05;88.91;101972.47;5029193;28;20056;-60
2023/08/16 11:06:47;;;;;;;4.97;1.67;;;;;;;28.17;88.56;101974.47;5029867;28;20424;-59
2023/08/16 11:09:30;;;;;;;6.63;2.00;;;;;;;27.95;88.52;101983.50;5031721;28;20447;-59
2023/08/16 11:12:03;;;;;;;3.78;1.52;;;;;;;28.47;81.92;101990.63;5031394;28;20104;-60
2023/08/16 11:14:32;;;;;;;4.32;1.70;;;;;;;28.03;82.99;101988.00;5031084;28;20042;-60
2023/08/16 11:17:02;;;;;;;5.55;1.90;;;;;;;28.04;84.36;101982.41;5028593;28;20450;-54
2023/08/16 11:19:30;;;;;;;6.22;1.77;;;;;;;28.64;81.62;101983.09;5028458;28;20519;-55
2023/08/16 11:22:01;;;;;;;6.07;1.80;;;;;;;28.89;78.93;101969.22;5028952;28;20042;-54
2023/08/16 11:24:30;;;;;;;5.05;1.60;;;;;;;28.98;80.44;101980.72;5026724;28;20053;-54
2023/08/16 11:26:58;;;;;;;6.05;1.75;;;;;;;28.59;77.59;101969.31;5028664;28;20053;-55